Warning: A non-numeric value encountered in /home/httpd/v/a/l/valdefench57sgz/valdefench57sgz.franceserv.com/weather28/wsFunctions.php on line 312
WARNING - Change wsUserSettings.php: $SITE["topfolder"] from : /home/httpd/v/a/l/valdefench57sgz/valdefench57sgz.franceserv.com/weather28/ to: weather28/
  Séremange Erzange, Lorraine, Moselle 57, France.  (25 km au Nord de Metz et 10 km au Sud-Ouest de Thionville)    Latitude : 49° 18' 59'' Nord    Longitude : 6° 5' 33'' Est    Altitude : 210 Mètres  



My webcam FOSCAM plus d'informations My webcam FOSCAM


My webcam 2 facing SUD plus d'informations My webcam 2 facing SUD


Visitez nos sites météorologiques autres:

Cartes by Infoclimat

Releves de station MF

Site partenaire

MeteoTemplate

BLOG/MeteoTemplate.com

MK meteokit

HomeWeatherStation WU

Home MeteoLive Station 2

Radar Meteox

Radar Meteo60

carte MétéoAlerte

Image satellite par ARPAL_meteoFermo

Data Infoclimat.fr

Radars Pluies NE

Vigilance meteo FR

Keraunos

Carte Isobares

Tags GFS

Bracknell Animation

Air Lorraine



Pas de vigilance météorologique particulière.    Il n'y a aucun avertissement

Rapports METAR proximité


Warning: A non-numeric value encountered in /home/httpd/v/a/l/valdefench57sgz/valdefench57sgz.franceserv.com/weather28/metar/wsMetarTxt.php on line 604

Warning: A non-numeric value encountered in /home/httpd/v/a/l/valdefench57sgz/valdefench57sgz.franceserv.com/weather28/metar/wsMetarTxt.php on line 604
   
LFJL - Metz
Mise à jour: 18-10-2018 21:30
Partiellement nuageux  
Partiellement nuageux  
   Vent: Nord Est 14.8 km/h
Vent: Nord Est 14.8 km/h
Température: 13°C
Point de rosée: 11°C
Humidité: 88%
Baromètre: 1021 hPa
Nuages: Partly Cloudy
visibilité: 6 km
Détails des nuages: Partiellement nuageux ft
LFJL 181930Z AUTO 04008KT 6000 NSC 13/11 Q1021 NOSIG
ELLX - Luxemburg
Mise à jour: 18-10-2018 21:50
Brouillard, Partiellement nuageux  
Brouillard, Partiellement nuageux  
   Vent: Nord Est 20.4 km/h
Vent: Nord Est 20.4 km/h
Température: 13°C
Point de rosée: 10°C
Humidité: 82%
Baromètre: 1022 hPa
Nuages: Partly Cloudy
visibilité: 4 km
Détails des nuages: Partiellement nuageux ft
ELLX 181950Z 05011KT 4000 BR NSC 13/10 Q1022 NOSIG
EDDR - Sarrbrucken
Mise à jour: 18-10-2018 21:50
Partiellement nuageux  
Partiellement nuageux  
   Vent: Est Nord Est 16.7 km/h
Vent: Est Nord Est 16.7 km/h
Température: 13°C
Point de rosée: 11°C
Humidité: 88%
Baromètre: 1021 hPa
Nuages: Partly Cloudy
visibilité: 8 km
Détails des nuages: Partiellement nuageux ft
EDDR 181950Z 06009KT 030V090 8000 NSC 13/11 Q1021 NOSIG
LFST - Strasbourg
Mise à jour: 18-10-2018 21:30
Ciel peu couvert  
Ciel peu couvert  
   Vent: Nord Nord Est 16.7 km/h
Vent: Nord Nord Est 16.7 km/h
Température: 16°C
Point de rosée: 11°C
Humidité: 72%
Baromètre: 1020 hPa
visibilité: More then 10 km
Détails des nuages: Ciel peu couvert ft
LFST 181930Z AUTO 02009KT CAVOK 16/11 Q1020 NOSIG
  

Script développé par  Saratoga-weather.org Adapté pour le modèle par  Weerstation Leuven

Vous trouverez notre info météo Également à:

UK Metoffice

WeatherCloud

Weather Underground

French Weather Network

AWEKAS

WeatherlinkIP

Citizen Weather Observer Program (CWOP)

HAMweather, WeatherForYou, PWS Weather

Anything Weather

Infoclimat

lineaMeteo

meteonetwork

meteociel

stationmeteo

meteobelgique

wedaal24

wsmap

arps

weatherbug

wetterstationen

windgurucz

         

Équipement que nous utilisons:

Station de Météo
Davis VP2 Plus (Wireless)

Programme Météo
Meteohub

Ordinateur Météo
MeteoLink LAN

Provider
FranceServ Hébergement

Davis VP2 Plus (Wireless)

Meteohub

MeteoLink LAN

FranceServ Hébergement